Flight Track Log - Related Links

Times and Time Zones

All times are in EST time to prevent confusion due to time zone crossing. See the N717AN flight status page for this flight to view local times or setup timezone preferences in your user account.

Time Position Orientation Groundspeed Altitude Reporting Facility
EST Latitude Longitude Course Direction KTS MPH feet Rate Location/Type
Tue 09:41:00 PM 40.7935 -73.5164 37° Northeast  Level Estimated
Tue 09:42:00 PM 40.8826 -73.3680 30° Northeast  Level Estimated
Tue 09:43:00 PM 40.9715 -73.2193 48° Northeast  Level Estimated
Tue 09:44:00 PM 41.0602 -73.0702 28° Northeast  Level Estimated
Tue 09:45:00 PM 41.1486 -72.9207 51° Northeast  Level Estimated
Tue 09:45:48 PM 40.8562 -73.4611 51° Northeast 397 457 16,800  Level FlightAware (KSNC)
Tue 09:46:22 PM 40.9186 -73.4228 25° Northeast 405 466 17,200 2,500 Climbing FlightAware (KSNC)
Tue 09:47:12 PM 40.9997 -73.3714 26° Northeast 391 450 20,300 2,710 Climbing FlightAware (KSNC)
Tue 09:47:55 PM 41.0776 -73.3253 24° Northeast 429 494 21,400 1,856 Climbing FlightAware (KSNC)
Tue 09:48:49 PM 41.1791 -73.2642 24° Northeast 457 526 23,300 1,958 Climbing FlightAware (KSNC)
Tue 09:49:30 PM 41.2588 -73.2142 25° Northeast 473 544 24,500 1,692 Climbing FlightAware (KSNC)
Tue 09:50:07 PM 41.3345 -73.1665 25° Northeast 495 570 25,500 1,558 Climbing FlightAware (KSNC)
Tue 09:50:47 PM 41.4060 -73.1009 35° Northeast 541 623 26,500 1,500 Climbing FlightAware (KSNC)
Tue 09:51:19 PM 41.4605 -73.0141 50° Northeast 574 661 27,300 1,479 Climbing FlightAware (KSNC)
Tue 09:52:00 PM 41.5124 -72.8778 63° Northeast 589 678 28,300 1,367 Climbing FlightAware (KSNC)
Tue 09:52:38 PM 41.5571 -72.7549 64° Northeast 605 696 29,100 1,385 Climbing FlightAware (KSNC)
Tue 09:53:18 PM 41.6059 -72.6196 64° Northeast 616 709 30,100 1,394 Climbing FlightAware (KSNC)
Tue 09:54:17 PM 41.6815 -72.4106 64° Northeast 634 730 31,400 1,333 Climbing FlightAware (KSNC)
Tue 09:54:57 PM 41.7329 -72.2674 64° Northeast 645 742 32,300 842 Climbing FlightAware (KSNC)
Tue 09:56:11 PM 41.8290 -71.9984 64° Northeast 652 750 33,000 362 Climbing FlightAware (ESTA / AGH)
Tue 09:56:53 PM 41.8760 -71.8663 64° Northeast 650 748 33,000  Level FlightAware (ESTA / AGH)
Tue 09:57:23 PM 41.9206 -71.7412 64° Northeast 648 746 33,000  Level FlightAware (KOWD)
Tue 09:58:05 PM 41.9554 -71.6488 63° Northeast 649 747 33,000  Level FlightAware (KOWD)
Tue 09:58:46 PM 42.0341 -71.4420 63° Northeast 648 746 33,000  Level FlightAware (KOWD)
Tue 09:59:24 PM 42.0853 -71.3051 63° Northeast 649 747 33,000  Level FlightAware (KOWD)
Tue 10:00:02 PM 42.1326 -71.1774 63° Northeast 649 747 33,000  Level FlightAware (KOWD)
Tue 10:00:35 PM 42.1784 -71.0526 64° Northeast 648 746 33,000  Level FlightAware (EPKK / KRK)
Tue 10:01:06 PM 42.2209 -70.9365 64° Northeast 649 747 33,000  Level FlightAware (ESTA / AGH)
Tue 10:01:36 PM 42.2580 -70.8352 64° Northeast 651 749 33,000  Level FlightAware (EPKK / KRK)
Tue 10:02:17 PM 42.3076 -70.6988 64° Northeast 651 749 33,000  Level FlightAware (ESTA / AGH)
Tue 10:02:59 PM 42.3706 -70.5243 64° Northeast 649 747 33,000  Level FlightAware (ESTA / AGH)
Tue 10:03:16 PM 42.3926 -70.4634 64° Northeast 646 743 33,000  Level FlightAware
Tue 10:03:41 PM 42.4259 -70.3707 64° Northeast 647 745 33,000  Level FlightAware
Tue 10:03:52 PM 42.4401 -70.3313 64° Northeast 646 743 33,000  Level FlightAware
Tue 10:04:22 PM 42.4798 -70.2206 64° Northeast 650 748 33,000  Level FlightAware (EPKK / KRK)
Tue 10:04:47 PM 42.5124 -70.1292 64° Northeast 646 743 33,000  Level FlightAware
Tue 10:05:24 PM 42.5600 -69.9949 64° Northeast 649 747 33,000  Level FlightAware (EPKK / KRK)
Tue 10:05:54 PM 42.5987 -69.8855 64° Northeast 645 742 33,000  Level FlightAware
Tue 10:06:27 PM 42.6386 -69.7721 64° Northeast 647 745 33,000  Level FlightAware
Tue 10:07:07 PM 42.6917 -69.6206 64° Northeast 647 745 33,000  Level FlightAware (EPKK / KRK)
Tue 10:07:49 PM 42.7465 -69.4636 65° Northeast 647 745 33,000  Level FlightAware (EPKK / KRK)
Tue 10:08:19 PM 42.7789 -69.3703 65° Northeast 646 743 33,000  Level FlightAware
Tue 10:08:50 PM 42.8220 -69.2456 65° Northeast 647 745 33,000  Level FlightAware (EPKK / KRK)
Tue 10:09:54 PM 42.8899 -69.0476 65° Northeast 646 743 33,000  Level FlightAware
Tue 10:10:35 PM 42.9543 -68.8588 65° Northeast 647 745 33,000  Level FlightAware
Tue 10:11:12 PM 43.0034 -68.7139 65° Northeast 648 746 33,000  Level FlightAware
Tue 10:11:48 PM 43.0462 -68.5869 65° Northeast 648 746 33,000  Level FlightAware
Tue 10:12:20 PM 43.0823 -68.4797 65° Northeast 648 746 33,000  Level FlightAware
Tue 10:13:14 PM 43.1542 -68.2643 65° Northeast 647 745 33,000  Level FlightAware
Tue 10:14:34 PM 43.2533 -67.9646 65° Northeast 651 749 33,000  Level FlightAware
Tue 10:15:11 PM 43.2990 -67.8258 66° East 650 748 33,000  Level FlightAware
Tue 10:15:50 PM 43.3472 -67.6774 66° East 649 747 33,000  Level FlightAware
Tue 10:16:46 PM 43.4142 -67.4709 66° East 650 748 33,000  Level FlightAware
Tue 10:17:28 PM 43.4656 -67.3111 66° East 649 747 33,000  Level FlightAware
Tue 10:18:08 PM 43.5089 -67.1757 66° East 648 746 33,000  Level FlightAware
Tue 10:18:49 PM 43.5653 -67.0085 65° Northeast 650 748 33,000  Level FlightAware
Tue 10:19:54 PM 43.6608 -66.7762 60° Northeast 642 739 33,000  Level FlightAware
Tue 10:20:53 PM 43.7399 -66.5922 59° Northeast 641 738 33,000  Level FlightAware
Tue 10:22:54 PM 43.9199 -66.1675 59° Northeast 644 741 33,000  Level FlightAware
Tue 10:24:54 PM 44.1117 -65.7076 60° Northeast 642 739 33,000  Level FlightAware
Tue 10:25:33 PM 44.1701 -65.5659 60° Northeast 641 738 33,000  Level FlightAware
Tue 10:26:34 PM 44.2572 -65.3537 60° Northeast 641 738 33,000  Level FlightAware
Tue 10:27:34 PM 44.3431 -65.1424 60° Northeast 642 739 33,000  Level FlightAware
Tue 10:28:13 PM 44.4029 -64.9949 60° Northeast 640 736 33,000  Level FlightAware
Tue 10:28:54 PM 44.4635 -64.8441 61° Northeast 639 735 33,000  Level FlightAware
Tue 10:29:35 PM 44.5199 -64.7030 61° Northeast 639 735 33,000  Level FlightAware
Tue 10:31:14 PM 44.6563 -64.3594 61° Northeast 639 735 33,000  Level FlightAware
Tue 10:32:35 PM 44.7792 -64.0459 61° Northeast 642 739 33,000  Level FlightAware
Tue 10:33:15 PM 44.8248 -63.9290 61° Northeast 644 741 33,000  Level FlightAware
Tue 10:34:35 PM 44.9335 -63.6475 61° Northeast 643 740 33,000  Level FlightAware
Tue 10:35:16 PM 44.9833 -63.4500 61° Northeast 640 736 33,000  Level Gander Center
Tue 10:36:16 PM 45.0833 -63.2167 59° Northeast 640 736 33,000  Level Gander Center
Tue 10:37:16 PM 45.1500 -63.0000 66° East 640 736 33,000  Level Gander Center
Tue 10:38:16 PM 45.2500 -62.7667 59° Northeast 640 736 33,000  Level Gander Center
Tue 10:39:16 PM 45.3167 -62.5667 65° Northeast 650 748 33,000  Level Gander Center
Tue 10:40:16 PM 45.4000 -62.3333 63° Northeast 640 736 33,000  Level Gander Center
Tue 10:41:16 PM 45.4833 -62.1167 61° Northeast 640 736 33,000  Level Gander Center
Tue 10:42:16 PM 45.5833 -61.8833 58° Northeast 650 748 33,000  Level Gander Center
Tue 10:43:16 PM 45.6667 -61.6333 64° Northeast 650 748 33,000  Level Gander Center
Tue 10:44:16 PM 45.7333 -61.4333 64° Northeast 650 748 33,000  Level Gander Center
Tue 10:45:16 PM 45.8167 -61.1833 64° Northeast 650 748 33,000  Level Gander Center
Tue 10:46:16 PM 45.9000 -60.9667 61° Northeast 650 748 33,000  Level Gander Center
Tue 10:47:16 PM 45.9833 -60.7333 63° Northeast 650 748 33,000  Level Gander Center
Tue 10:48:16 PM 46.0500 -60.4833 69° East 650 748 33,000  Level Gander Center
Tue 10:49:16 PM 46.1333 -60.2667 61° Northeast 640 736 33,000  Level Gander Center
Tue 10:50:16 PM 46.2167 -60.0333 63° Northeast 640 736 33,000  Level Gander Center
Tue 10:51:16 PM 46.2833 -59.8167 66° East 640 736 33,000  Level Gander Center
Tue 10:52:16 PM 46.3667 -59.5667 64° Northeast 640 736 33,000  Level Gander Center
Tue 10:53:16 PM 46.4500 -59.3500 61° Northeast 640 736 33,000  Level Gander Center
Tue 10:54:16 PM 46.5167 -59.1000 69° East 640 736 33,000  Level Gander Center
Tue 10:55:16 PM 46.6000 -58.8500 64° Northeast 640 736 33,000  Level Gander Center
Tue 10:56:16 PM 46.6667 -58.6333 66° East 640 736 33,000  Level Gander Center
Tue 10:57:16 PM 46.7333 -58.3833 69° East 640 736 33,000  Level Gander Center
Tue 10:58:16 PM 46.8167 -58.1667 61° Northeast 640 736 33,000  Level Gander Center
Tue 10:59:16 PM 46.9000 -57.9167 64° Northeast 640 736 33,000  Level Gander Center
Tue 11:00:16 PM 46.9667 -57.6833 67° East 630 725 33,000  Level Gander Center
Tue 11:01:16 PM 47.0500 -57.4333 64° Northeast 640 736 33,000  Level Gander Center
Tue 11:02:16 PM 47.1000 -57.2167 71° East 640 736 33,000 250 Level Gander Center
Tue 11:03:16 PM 47.1833 -56.9833 62° Northeast 640 736 33,500 1,300 Climbing Gander Center
Tue 11:04:16 PM 47.2500 -56.7333 68° East 630 725 35,600 1,250 Climbing Gander Center
Tue 11:05:16 PM 47.3167 -56.5000 67° East 630 725 36,000 200 Climbing Gander Center
Tue 11:06:16 PM 47.3833 -56.2667 67° East 630 725 36,000  Level Gander Center
Tue 11:07:16 PM 47.4500 -56.0500 65° Northeast 630 725 36,000  Level Gander Center
Tue 11:08:16 PM 47.5333 -55.7833 65° Northeast 630 725 36,000  Level Gander Center
Tue 11:09:16 PM 47.5833 -55.5667 71° East 620 713 36,000  Level Gander Center
Tue 11:10:16 PM 47.6500 -55.3000 70° East 620 713 36,000  Level Gander Center
Tue 11:11:16 PM 47.7167 -55.0667 67° East 620 713 36,000  Level Gander Center
Tue 11:12:16 PM 47.7833 -54.8333 67° East 620 713 36,000  Level Gander Center
Tue 11:13:16 PM 47.8500 -54.6000 67° East 620 713 36,000  Level Gander Center
Tue 11:14:16 PM 47.9167 -54.3500 68° East 620 713 36,000  Level Gander Center
Tue 11:15:16 PM 47.9833 -54.1167 67° East 620 713 36,000  Level Gander Center
Tue 11:16:16 PM 48.0333 -53.9000 71° East 620 713 36,000  Level Gander Center
Tue 11:17:16 PM 48.1000 -53.6500 68° East 620 713 36,000  Level Gander Center
Tue 11:18:16 PM 48.1500 -53.4167 72° East 620 713 36,000  Level Gander Center
Tue 11:19:16 PM 48.2167 -53.1500 69° East 620 713 36,000  Level Gander Center
Tue 11:20:16 PM 48.2833 -52.9167 67° East 630 725 36,000  Level Gander Center
Tue 11:21:16 PM 48.3500 -52.6667 68° East 630 725 36,000  Level Gander Center
Tue 11:22:16 PM 48.4167 -52.4000 69° East 630 725 36,000  Level Gander Center
Tue 11:23:16 PM 48.4667 -52.1667 72° East 630 725 36,000  Level Gander Center
Tue 11:24:16 PM 48.5167 -51.9000 74° East 620 713 36,000  Level Gander Center
Tue 11:25:16 PM 48.5500 -51.6667 78° East 620 713 36,000  Level Gander Center
Tue 11:26:16 PM 48.6167 -51.4333 67° East 630 725 36,000  Level Gander Center
Tue 11:27:16 PM 48.6833 -51.1667 69° East 630 725 36,000  Level Gander Center
Tue 11:28:16 PM 48.7333 -50.9167 73° East 630 725 36,000  Level Gander Center
Tue 11:29:16 PM 48.7833 -50.6500 74° East 630 725 36,000  Level Gander Center
Tue 11:30:16 PM 48.8500 -50.4167 66° East 630 725 36,000  Level Gander Center
Tue 11:31:16 PM 48.8833 -50.1667 78° East 630 725 36,000  Level Gander Center
Tue 11:32:16 PM 48.9500 -49.9333 66° East 630 725 36,000  Level Gander Center
Tue 11:33:16 PM 48.9833 -49.6667 79° East 630 725 36,000  Level Gander Center
Tue 11:35:00 PM 49.0602 -49.3975 78° East  Level Estimated
Tue 11:42:00 PM 49.2736 -47.8250 78° East  Level FlightAware
Tue 11:43:00 PM 49.3023 -47.5993 79° East  Level FlightAware
Tue 11:44:00 PM 49.3306 -47.3733 79° East  Level FlightAware
Tue 11:45:00 PM 49.3585 -47.1470 79° East  Level FlightAware
Tue 11:46:00 PM 49.3859 -46.9206 79° East  Level FlightAware
Tue 11:47:00 PM 49.4128 -46.6938 80° East  Level FlightAware
Tue 11:48:00 PM 49.4394 -46.4668 80° East  Level FlightAware
Tue 11:49:00 PM 49.4655 -46.2396 80° East  Level FlightAware
Tue 11:50:00 PM 49.4911 -46.0121 80° East  Level FlightAware
Tue 11:51:00 PM 49.5163 -45.7843 80° East  Level FlightAware
Tue 11:52:00 PM 49.5410 -45.5564 80° East  Level FlightAware
Tue 11:53:00 PM 49.5653 -45.3282 81° East  Level FlightAware
Tue 11:54:00 PM 49.5891 -45.0998 81° East  Level FlightAware
Tue 11:55:00 PM 49.6125 -44.8712 81° East  Level FlightAware
Tue 11:56:00 PM 49.6355 -44.6423 81° East  Level FlightAware
Tue 11:57:00 PM 49.6580 -44.4133 81° East  Level FlightAware
Tue 11:58:00 PM 49.6800 -44.1840 81° East  Level FlightAware
Tue 11:59:00 PM 49.7016 -43.9545 82° East  Level FlightAware
Wed 12:00:00 AM 49.7227 -43.7248 82° East  Level FlightAware
Wed 12:01:00 AM 49.7434 -43.4949 82° East  Level FlightAware
Wed 12:02:00 AM 49.7636 -43.2649 82° East  Level FlightAware
Wed 12:03:00 AM 49.7834 -43.0346 82° East  Level FlightAware
Wed 12:04:00 AM 49.8027 -42.8042 83° East  Level FlightAware
Wed 12:05:00 AM 49.8215 -42.5736 83° East  Level FlightAware
Wed 12:06:00 AM 49.8399 -42.3428 83° East  Level FlightAware
Wed 12:07:00 AM 49.8578 -42.1118 83° East  Level FlightAware
Wed 12:08:00 AM 49.8753 -41.8806 83° East  Level FlightAware
Wed 12:09:00 AM 49.8923 -41.6493 83° East  Level FlightAware
Wed 12:10:00 AM 49.9089 -41.4178 84° East  Level FlightAware
Wed 12:11:00 AM 49.9250 -41.1862 84° East  Level FlightAware
Wed 12:12:00 AM 49.9406 -40.9544 84° East  Level FlightAware
Wed 12:13:00 AM 49.9558 -40.7225 84° East  Level FlightAware
Wed 12:14:00 AM 49.9705 -40.4904 84° East  Level FlightAware
Wed 12:15:00 AM 49.9847 -40.2582 84° East  Level FlightAware
Wed 12:16:00 AM 49.9985 -40.0259 85° East  Level FlightAware
Wed 12:17:00 AM 50.0507 -39.7988 69° East  Level FlightAware
Wed 12:18:00 AM 50.1050 -39.5810 69° East  Level FlightAware
Wed 12:19:00 AM 50.1589 -39.3626 69° East  Level FlightAware
Wed 12:20:00 AM 50.2125 -39.1437 69° East  Level FlightAware
Wed 12:21:00 AM 50.2656 -38.9244 69° East  Level FlightAware
Wed 12:22:00 AM 50.3183 -38.7045 69° East  Level FlightAware
Wed 12:23:00 AM 50.3706 -38.4842 70° East  Level FlightAware
Wed 12:24:00 AM 50.4224 -38.2634 70° East  Level FlightAware
Wed 12:25:00 AM 50.4739 -38.0421 70° East  Level FlightAware
Wed 12:26:00 AM 50.5249 -37.8203 70° East  Level FlightAware
Wed 12:27:00 AM 50.5755 -37.5981 70° East  Level FlightAware
Wed 12:28:00 AM 50.6257 -37.3754 70° East  Level FlightAware
Wed 12:29:00 AM 50.6755 -37.1522 71° East  Level FlightAware
Wed 12:30:00 AM 50.7248 -36.9285 71° East  Level FlightAware
Wed 12:31:00 AM 50.7737 -36.7043 71° East  Level FlightAware
Wed 12:32:00 AM 50.8222 -36.4797 71° East  Level FlightAware
Wed 12:33:00 AM 50.8702 -36.2547 71° East  Level FlightAware
Wed 12:34:00 AM 50.9178 -36.0291 71° East  Level FlightAware
Wed 12:35:00 AM 50.9650 -35.8032 72° East  Level FlightAware
Wed 12:36:00 AM 51.0117 -35.5767 72° East  Level FlightAware
Wed 12:37:00 AM 51.0580 -35.3498 72° East  Level FlightAware
Wed 12:38:00 AM 51.1039 -35.1224 72° East  Level FlightAware
Wed 12:39:00 AM 51.1493 -34.8946 72° East  Level FlightAware
Wed 12:40:00 AM 51.1942 -34.6664 72° East  Level FlightAware
Wed 12:41:00 AM 51.2388 -34.4377 73° East  Level FlightAware
Wed 12:42:00 AM 51.2828 -34.2085 73° East  Level FlightAware
Wed 12:43:00 AM 51.3265 -33.9790 73° East  Level FlightAware
Wed 12:44:00 AM 51.3697 -33.7489 73° East  Level FlightAware
Wed 12:45:00 AM 51.4124 -33.5185 73° East  Level FlightAware
Wed 12:46:00 AM 51.4547 -33.2876 74° East  Level FlightAware
Wed 12:47:00 AM 51.4965 -33.0563 74° East  Level FlightAware
Wed 12:48:00 AM 51.5378 -32.8246 74° East  Level FlightAware
Wed 12:49:00 AM 51.5788 -32.5925 74° East  Level FlightAware
Wed 12:50:00 AM 51.6192 -32.3599 74° East  Level FlightAware
Wed 12:51:00 AM 51.6592 -32.1269 74° East  Level FlightAware
Wed 12:52:00 AM 51.6987 -31.8936 75° East  Level FlightAware
Wed 12:53:00 AM 51.7378 -31.6598 75° East  Level FlightAware
Wed 12:54:00 AM 51.7764 -31.4256 75° East  Level FlightAware
Wed 12:55:00 AM 51.8145 -31.1910 75° East  Level FlightAware
Wed 12:56:00 AM 51.8522 -30.9560 75° East  Level FlightAware
Wed 12:57:00 AM 51.8894 -30.7207 76° East  Level FlightAware
Wed 12:58:00 AM 51.9261 -30.4849 76° East  Level FlightAware
Wed 12:59:00 AM 51.9624 -30.2488 76° East  Level FlightAware
Wed 01:00:00 AM 51.9982 -30.0122 76° East  Level FlightAware
Wed 01:01:00 AM 52.0313 -29.7745 77° East  Level FlightAware
Wed 01:02:00 AM 52.0638 -29.5364 77° East  Level FlightAware
Wed 01:03:00 AM 52.0958 -29.2980 78° East  Level FlightAware
Wed 01:04:00 AM 52.1274 -29.0592 78° East  Level FlightAware
Wed 01:05:00 AM 52.1585 -28.8200 78° East  Level FlightAware
Wed 01:06:00 AM 52.1891 -28.5805 78° East  Level FlightAware
Wed 01:07:00 AM 52.2192 -28.3407 78° East  Level FlightAware
Wed 01:08:00 AM 52.2488 -28.1006 79° East  Level FlightAware
Wed 01:09:00 AM 52.2779 -27.8602 79° East  Level FlightAware
Wed 01:10:00 AM 52.3065 -27.6194 79° East  Level FlightAware
Wed 01:11:00 AM 52.3358 -27.3787 79° East  Level FlightAware
Wed 01:12:00 AM 52.3651 -27.1379 79° East  Level FlightAware
Wed 01:13:00 AM 52.3939 -26.8967 79° East  Level FlightAware
Wed 01:14:00 AM 52.4223 -26.6552 79° East  Level FlightAware
Wed 01:15:00 AM 52.4501 -26.4134 79° East  Level FlightAware
Wed 01:16:00 AM 52.4775 -26.1713 79° East  Level FlightAware
Wed 01:17:00 AM 52.5043 -25.9289 80° East  Level FlightAware
Wed 01:18:00 AM 52.5307 -25.6863 80° East  Level FlightAware
Wed 01:19:00 AM 52.5565 -25.4433 80° East  Level FlightAware
Wed 01:20:00 AM 52.5819 -25.2000 80° East  Level FlightAware
Wed 01:21:00 AM 52.6068 -24.9565 80° East  Level FlightAware
Wed 01:22:00 AM 52.6312 -24.7127 81° East  Level FlightAware
Wed 01:23:00 AM 52.6550 -24.4686 81° East  Level FlightAware
Wed 01:24:00 AM 52.6784 -24.2243 81° East  Level FlightAware
Wed 01:25:00 AM 52.7013 -23.9797 81° East  Level FlightAware
Wed 01:26:00 AM 52.7236 -23.7348 81° East  Level FlightAware
Wed 01:27:00 AM 52.7455 -23.4897 82° East  Level FlightAware
Wed 01:28:00 AM 52.7668 -23.2444 82° East  Level FlightAware
Wed 01:29:00 AM 52.7877 -22.9988 82° East  Level FlightAware
Wed 01:30:00 AM 52.8080 -22.7530 82° East  Level FlightAware
Wed 01:31:00 AM 52.8278 -22.5070 82° East  Level FlightAware
Wed 01:32:00 AM 52.8471 -22.2607 83° East  Level FlightAware
Wed 01:33:00 AM 52.8660 -22.0142 83° East  Level FlightAware
Wed 01:34:00 AM 52.8843 -21.7675 83° East  Level FlightAware
Wed 01:35:00 AM 52.9020 -21.5206 83° East  Level FlightAware
Wed 01:36:00 AM 52.9193 -21.2735 83° East  Level FlightAware
Wed 01:37:00 AM 52.9361 -21.0262 83° East  Level FlightAware
Wed 01:38:00 AM 52.9523 -20.7788 84° East  Level FlightAware
Wed 01:39:00 AM 52.9680 -20.5311 84° East  Level FlightAware
Wed 01:40:00 AM 52.9832 -20.2833 84° East  Level FlightAware
Wed 01:41:00 AM 52.9980 -20.0352 84° East  Level FlightAware
Wed 01:42:00 AM 52.9993 -19.7861 90° East  Level FlightAware
Wed 01:43:00 AM 52.9980 -19.5369 90° East  Level FlightAware
Wed 01:44:00 AM 52.9962 -19.2877 91° East  Level FlightAware
Wed 01:45:00 AM 52.9939 -19.0385 91° East  Level FlightAware
Wed 01:46:00 AM 52.9910 -18.7893 91° East  Level FlightAware
Wed 01:47:00 AM 52.9877 -18.5401 91° East  Level FlightAware
Wed 01:48:00 AM 52.9838 -18.2910 91° East  Level FlightAware
Wed 01:49:00 AM 52.9794 -18.0420 92° East  Level FlightAware
Wed 01:50:00 AM 52.9744 -17.7930 92° East  Level FlightAware
Wed 01:51:00 AM 52.9690 -17.5441 92° East  Level FlightAware
Wed 01:52:00 AM 52.9630 -17.2952 92° East  Level FlightAware
Wed 01:53:00 AM 52.9565 -17.0464 92° East  Level FlightAware
Wed 01:54:00 AM 52.9495 -16.7977 93° East  Level FlightAware
Wed 01:55:00 AM 52.9420 -16.5490 93° East  Level FlightAware
Wed 01:56:00 AM 52.9339 -16.3005 93° East  Level FlightAware
Wed 01:57:00 AM 52.9254 -16.0520 93° East  Level FlightAware
Wed 01:58:00 AM 52.9163 -15.8037 93° East  Level FlightAware
Wed 01:59:00 AM 52.9067 -15.5554 94° East  Level FlightAware
Wed 02:00:00 AM 52.8966 -15.3073 94° East  Level FlightAware
Wed 02:01:00 AM 52.8859 -15.0593 94° East  Level FlightAware
Wed 02:02:00 AM 52.8753 -14.8113 94° East  Level FlightAware
Wed 02:03:00 AM 52.8642 -14.5635 94° East  Level FlightAware
Wed 02:04:00 AM 52.8527 -14.3158 94° East  Level FlightAware
Wed 02:05:00 AM 52.8406 -14.0682 95° East  Level FlightAware
Wed 02:06:00 AM 52.8280 -13.8208 95° East  Level FlightAware
Wed 02:07:00 AM 52.8149 -13.5735 95° East  Level FlightAware
Wed 02:08:00 AM 52.8013 -13.3263 95° East  Level FlightAware
Wed 02:09:00 AM 52.7872 -13.0794 95° East  Level FlightAware
Wed 02:10:00 AM 52.7725 -12.8325 96° East  Level FlightAware
Wed 02:11:00 AM 52.7574 -12.5859 96° East  Level FlightAware
Wed 02:12:00 AM 52.7417 -12.3394 96° East  Level FlightAware
Wed 02:13:00 AM 52.7256 -12.0931 96° East  Level FlightAware
Wed 02:14:00 AM 52.7089 -11.8470 96° East  Level FlightAware
Wed 02:14:27 AM 52.7803 -11.8869 96° East 485 558 36,000  Level FlightAware
Wed 02:15:09 AM 52.7674 -11.7345 98° East 484 557 36,000  Level FlightAware
Wed 02:16:06 AM 52.7493 -11.5260 98° East 484 557 36,000  Level FlightAware
Wed 02:16:48 AM 52.7359 -11.3727 98° East 484 557 36,000  Level FlightAware
Wed 02:17:24 AM 52.7240 -11.2389 98° East 481 554 36,000  Level FlightAware
Wed 02:18:07 AM 52.7099 -11.0833 98° East 480 552 36,000  Level FlightAware
Wed 02:18:48 AM 52.6965 -10.9379 99° East 480 552 36,000  Level FlightAware
Wed 02:19:28 AM 52.6829 -10.7912 99° East 481 554 36,000  Level FlightAware
Wed 02:20:07 AM 52.6695 -10.6499 99° East 481 554 36,000  Level FlightAware
Wed 02:20:41 AM 52.6577 -10.5270 99° East 481 554 36,000  Level FlightAware
Wed 02:21:22 AM 52.6437 -10.3818 99° East 481 554 36,000  Level FlightAware
Wed 02:22:02 AM 52.6294 -10.2351 99° East 483 556 36,000  Level FlightAware
Wed 02:22:42 AM 52.6152 -10.0915 99° East 485 558 36,000  Level FlightAware
Wed 02:23:22 AM 52.6003 -9.9445 99° East 486 559 36,000  Level FlightAware
Wed 02:24:02 AM 52.5856 -9.8000 99° East 487 560 36,000  Level FlightAware
Wed 02:24:42 AM 52.5705 -9.6534 100° East 486 559 36,000  Level FlightAware
Wed 02:25:24 AM 52.5691 -9.6399 100° East 487 560 36,000  Level FlightAware
Wed 02:26:03 AM 52.5401 -9.3631 100° East 485 558 36,000  Level FlightAware
Wed 02:26:42 AM 52.5247 -9.2202 100° East 485 558 36,000  Level FlightAware
Wed 02:27:22 AM 52.5091 -9.0770 100° East 485 558 36,000  Level FlightAware
Wed 02:28:02 AM 52.4931 -8.9307 100° East 484 557 36,000  Level FlightAware
Wed 02:28:34 AM 52.4878 -8.8829 100° East 483 556 36,000  Level FlightAware (EPBY / BZG)
Wed 02:29:08 AM 52.4676 -8.7020 100° East 483 556 36,000  Level FlightAware
Wed 02:29:42 AM 52.4532 -8.5742 100° East 479 551 36,000  Level FlightAware
Wed 02:30:22 AM 52.4367 -8.4295 101° East 478 550 36,000  Level FlightAware
Wed 02:31:01 AM 52.4206 -8.2902 101° East 477 549 36,000  Level FlightAware
Wed 02:31:34 AM 52.4070 -8.1734 101° East 481 554 36,000  Level FlightAware
Wed 02:31:54 AM 52.3991 -8.1060 101° East 481 554 36,000  Level FlightAware
Wed 02:32:20 AM 52.3876 -8.0097 101° East 484 557 36,000  Level FlightAware
Wed 02:32:50 AM 52.3747 -7.9005 101° East 468 539 36,000  Level FlightAware
Wed 02:33:00 AM 52.3712 -7.8727 101° East 488 562 36,000  Level FlightAware
Wed 02:33:34 AM 52.3556 -7.7424 101° East 490 564 36,000  Level FlightAware (EPBY / BZG)
Wed 02:34:05 AM 52.3421 -7.6311 101° East 490 564 36,000  Level FlightAware
Wed 02:34:36 AM 52.3286 -7.5206 101° East 487 560 36,000  Level FlightAware
Wed 02:35:13 AM 52.3123 -7.3884 101° East 486 559 36,000 -257 Level FlightAware (EIDW / DUB)
Wed 02:35:46 AM 52.2972 -7.2680 102° East 484 557 35,700 -1,108 Descending FlightAware
Wed 02:36:18 AM 52.2843 -7.1656 102° East 488 562 34,800 -1,569 Descending FlightAware (EPBY / BZG)
Wed 02:36:51 AM 52.2678 -7.0345 102° East 474 545 34,000 -1,317 Descending FlightAware
Wed 02:36:59 AM 52.2669 -7.0294 102° East 491 565 33,900 -1,125 Descending FlightAware (EPBY / BZG)
Wed 02:37:39 AM 52.2450 -6.8597 102° East 492 566 33,100 -684 Descending FlightAware (EPBY / BZG)
Wed 02:38:18 AM 52.2270 -6.7200 102° East 492 566 33,000 -113 Descending FlightAware (EPBY / BZG)
Wed 02:38:32 AM 52.2211 -6.6741 102° East 489 563 33,000  Level FlightAware
Wed 02:39:02 AM 52.2062 -6.5612 102° East 491 565 33,000  Level FlightAware (EIDW / DUB)
Wed 02:39:39 AM 52.1886 -6.4278 102° East 491 565 33,000  Level FlightAware (EPBY / BZG)
Wed 02:39:56 AM 52.1802 -6.3650 102° East 491 565 33,000  Level FlightAware
Wed 02:40:29 AM 52.1648 -6.2512 102° East 493 567 33,000  Level FlightAware
Wed 02:41:00 AM 52.1493 -6.1364 102° East 493 567 33,000  Level FlightAware (EGCW)
Wed 02:41:32 AM 52.1331 -6.0196 103° East 492 566 33,000  Level FlightAware
Wed 02:41:37 AM 52.1301 -6.0014 105° East 489 563 33,000  Level FlightAware
Wed 02:42:16 AM 52.1058 -5.8697 107° East 491 565 33,000  Level FlightAware
Wed 02:42:55 AM 52.0797 -5.7302 107° East 486 559 33,000  Level FlightAware
Wed 02:42:58 AM 52.0770 -5.7156 107° East 480 552 33,000  Level FlightAware
Wed 02:43:32 AM 52.0563 -5.6020 106° East 489 563 33,000  Level FlightAware
Wed 02:44:12 AM 52.0325 -5.4703 106° East 460 529 33,000  Level FlightAware
Wed 02:44:48 AM 52.0167 -5.3836 106° East 461 531 33,000  Level FlightAware
Wed 02:45:18 AM 52.0017 -5.3009 106° East 462 532 33,000  Level FlightAware (EPBY / BZG)
Wed 02:45:50 AM 51.9756 -5.1583 106° East 464 534 33,000  Level FlightAware (EGPK / PIK)
Wed 02:46:22 AM 51.9531 -5.0377 107° East 465 535 33,000  Level FlightAware
Wed 02:46:52 AM 51.9359 -4.9455 107° East 465 535 33,000  Level FlightAware (CYOW)
Wed 02:47:19 AM 51.9175 -4.8478 107° East 463 533 33,000  Level FlightAware
Wed 02:47:50 AM 51.8982 -4.7455 107° East 463 533 33,000  Level FlightAware
Wed 02:48:27 AM 51.8751 -4.6243 107° East 463 533 33,000  Level FlightAware (CYOW)
Wed 02:48:31 AM 51.8725 -4.6105 107° East 460 529 33,000  Level FlightAware
Wed 02:49:10 AM 51.8486 -4.4859 107° East 462 532 33,000  Level FlightAware
Wed 02:49:25 AM 51.8383 -4.4327 107° East 460 529 33,000  Level FlightAware
Wed 02:49:38 AM 51.8300 -4.3896 107° East 460 529 33,000  Level FlightAware (EGHH / BOH)
Wed 02:50:10 AM 51.8097 -4.2845 107° East 460 529 33,000 -581 Level FlightAware (EGHH / BOH)
Wed 02:50:40 AM 51.7904 -4.1856 107° East 454 522 32,400 -1,371 Descending FlightAware (EGCW)
Wed 02:50:45 AM 51.7879 -4.1724 107° East 451 519 32,200 -2,000 Descending FlightAware (EGHH / BOH)
Wed 02:50:49 AM 51.7856 -4.1606 107° East 450 518 32,100 -1,500 Descending FlightAware
Wed 02:50:57 AM 51.7804 -4.1343 108° East 449 517 31,900 -1,902 Descending FlightAware
Wed 02:51:30 AM 51.7595 -4.0281 108° East 442 509 30,800 -1,810 Descending FlightAware
Wed 02:52:00 AM 51.7424 -3.9415 108° East 434 499 30,000 -1,750 Descending FlightAware (EGCW)
Wed 02:52:42 AM 51.7158 -3.8074 108° East 426 490 28,700 -1,882 Descending FlightAware
Wed 02:52:51 AM 51.7103 -3.7797 108° East 425 489 28,400 -1,600 Descending FlightAware
Wed 02:53:12 AM 51.6978 -3.7172 108° East 419 482 27,900 -1,125 Descending FlightAware
Wed 02:53:23 AM 51.6915 -3.6861 108° East 410 472 27,800 -818 Descending FlightAware
Wed 02:53:56 AM 51.6727 -3.5925 108° East 421 484 27,300 -900 Descending FlightAware
Wed 02:54:03 AM 51.6688 -3.5732 108° East 390 449 27,200 -1,500 Descending FlightAware
Wed 02:54:28 AM 51.6548 -3.5036 108° East 386 444 26,500 -1,636 Descending FlightAware
Wed 02:54:36 AM 51.6511 -3.4857 108° East 385 443 26,300 -1,350 Descending FlightAware
Wed 02:55:08 AM 51.6329 -3.3961 108° East 380 437 25,600 -1,400 Descending FlightAware (EGDM)
Wed 02:55:36 AM 51.6179 -3.3212 108° East 372 428 24,900 -1,463 Descending FlightAware
Wed 02:55:49 AM 51.6120 -3.2876 106° East 384 442 24,600 -1,565 Descending FlightAware
Wed 02:55:59 AM 51.6075 -3.2603 105° East 373 429 24,300 -1,500 Descending FlightAware (EGLF / FAB)
Wed 02:56:21 AM 51.5985 -3.2003 104° East 371 427 23,800 -1,455 Descending FlightAware
Wed 02:56:32 AM 51.5947 -3.1730 103° East 369 425 23,500 -1,500 Descending FlightAware
Wed 02:56:37 AM 51.5929 -3.1596 102° East 367 422 23,400 -1,500 Descending FlightAware
Wed 02:56:40 AM 51.5916 -3.1496 102° East 367 422 23,300 -1,412 Descending FlightAware (EGHH / BOH)
Wed 02:56:54 AM 51.5870 -3.1142 102° East 364 419 23,000 -1,500 Descending FlightAware
Wed 02:57:00 AM 51.5847 -3.0972 102° East 366 421 22,800 -2,000 Descending FlightAware (EGCW)
Wed 02:57:06 AM 51.5826 -3.0807 102° East 366 421 22,600 -2,000 Descending FlightAware
Wed 02:57:12 AM 51.5807 -3.0656 101° East 364 419 22,400 -1,636 Descending FlightAware
Wed 02:57:17 AM 51.5790 -3.0526 102° East 364 419 22,300 -1,364 Descending FlightAware
Wed 02:57:34 AM 51.5734 -3.0082 101° East 361 415 21,900 -1,333 Descending FlightAware
Wed 02:57:44 AM 51.5699 -2.9808 102° East 359 413 21,700 -1,200 Descending FlightAware
Wed 02:57:54 AM 51.5666 -2.9549 102° East 355 409 21,500 -1,161 Descending FlightAware
Wed 02:58:15 AM 51.5599 -2.9036 102° East 351 404 21,100 -1,364 Descending FlightAware
Wed 02:58:16 AM 51.5592 -2.8982 101° East 353 406 21,000 -1,875 Descending FlightAware
Wed 02:58:31 AM 51.5541 -2.8600 102° East 350 403 20,600 -1,440 Descending FlightAware
Wed 02:58:41 AM 51.5509 -2.8360 102° East 351 404 20,400 -1,500 Descending FlightAware (EGCW)
Wed 02:58:47 AM 51.5486 -2.8190 102° East 348 400 20,200 -1,200 Descending FlightAware
Wed 02:58:51 AM 51.5477 -2.8120 102° East 347 399 20,200 -1,091 Level FlightAware
Wed 02:58:58 AM 51.5450 -2.7922 102° East 348 400 20,000 -2,250 Descending FlightAware
Wed 02:58:59 AM 51.5448 -2.7908 103° East 348 400 19,900 -1,200 Descending FlightAware (EGDX / DGX)
Wed 02:59:13 AM 51.5397 -2.7537 102° East 343 395 19,700 -1,263 Descending FlightAware
Wed 02:59:18 AM 51.5381 -2.7410 102° East 342 394 19,500 -1,200 Descending FlightAware
Wed 02:59:23 AM 51.5372 -2.7346 103° East 343 395 19,500 -800 Level FlightAware
Wed 02:59:33 AM 51.5332 -2.7052 102° East 337 388 19,300 -1,125 Descending FlightAware
Wed 02:59:39 AM 51.5312 -2.6903 102° East 338 389 19,200 -1,000 Descending FlightAware
Wed 02:59:45 AM 51.5295 -2.6782 103° East 334 384 19,100 -1,500 Descending FlightAware
Wed 02:59:59 AM 51.5245 -2.6418 102° East 332 382 18,700 -1,429 Descending FlightAware
Wed 03:00:06 AM 51.5223 -2.6258 102° East 331 381 18,600 -1,714 Descending FlightAware (EGHH / BOH)
Wed 03:00:13 AM 51.5197 -2.6068 103° East 332 382 18,300 -2,727 Descending FlightAware
Wed 03:00:17 AM 51.5189 -2.6008 102° East 333 383 18,100 -1,385 Descending FlightAware (EGDX / DGX)
Wed 03:00:26 AM 51.5157 -2.5780 103° East 334 384 18,000 -923 Descending FlightAware (EGDM)
Wed 03:00:30 AM 51.5142 -2.5672 102° East 332 382 17,900 -2,308 Descending FlightAware
Wed 03:00:39 AM 51.5116 -2.5483 102° East 335 386 17,500 -1,440 Descending FlightAware (EGLF / FAB)
Wed 03:00:55 AM 51.5061 -2.5089 103° East 332 382 17,300 -1,059 Descending FlightAware
Wed 03:00:56 AM 51.5055 -2.5041 102° East 334 384 17,200 -1,500 Descending FlightAware
Wed 03:01:11 AM 51.5007 -2.4698 103° East 331 381 16,900 -1,263 Descending FlightAware
Wed 03:01:15 AM 51.4992 -2.4586 102° East 328 377 16,800 -1,125 Descending FlightAware
Wed 03:01:27 AM 51.4954 -2.4313 103° East 329 379 16,600 -1,200 Descending FlightAware
Wed 03:01:50 AM 51.4882 -2.3792 102° East 327 376 16,100 -1,588 Descending FlightAware
Wed 03:02:01 AM 51.4842 -2.3505 103° East 327 376 15,700 -1,600 Descending FlightAware
Wed 03:02:05 AM 51.4829 -2.3410 103° East 326 375 15,700 -923 Level FlightAware (EGDX / DGX)
Wed 03:02:14 AM 51.4800 -2.3208 103° East 323 372 15,500 -1,895 Descending FlightAware
Wed 03:02:24 AM 51.4770 -2.2988 102° East 324 373 15,100 -1,263 Descending FlightAware (EGDX / DGX)
Wed 03:02:33 AM 51.4738 -2.2760 103° East 323 372 15,100 -938 Level FlightAware
Wed 03:02:56 AM 51.4662 -2.2213 103° East 319 367 14,600 -1,200 Descending FlightAware (EGPK / PIK)
Wed 03:03:03 AM 51.4638 -2.2047 103° East 317 365 14,500 -1,091 Descending FlightAware
Wed 03:03:29 AM 51.4557 -2.1474 103° East 313 360 14,000 -968 Descending FlightAware
Wed 03:03:34 AM 51.4540 -2.1352 103° East 313 360 14,000  Level FlightAware
Wed 03:04:04 AM 51.4443 -2.0668 103° East 313 360 14,000  Level FlightAware
Wed 03:04:35 AM 51.4347 -1.9996 103° East 311 358 14,000  Level FlightAware
Wed 03:04:36 AM 51.4342 -1.9963 104° East 312 359 14,000  Level FlightAware
Wed 03:05:08 AM 51.4239 -1.9241 103° East 303 349 14,000  Level FlightAware
Wed 03:05:13 AM 51.4228 -1.9164 103° East 298 343 14,000  Level FlightAware
Wed 03:05:39 AM 51.4147 -1.8603 103° East 282 325 14,000 -182 Level FlightAware
Wed 03:05:46 AM 51.4125 -1.8452 103° East 280 322 13,900 -947 Descending FlightAware (EGPK / PIK)
Wed 03:05:58 AM 51.4091 -1.8213 103° East 279 321 13,700 -783 Descending FlightAware (EGDM)
Wed 03:06:09 AM 51.4060 -1.8001 103° East 278 320 13,600 -1,059 Descending FlightAware
Wed 03:06:32 AM 51.3995 -1.7551 103° East 276 318 13,100 -1,241 Descending FlightAware
Wed 03:06:38 AM 51.3977 -1.7430 103° East 276 318 13,000 -1,200 Descending FlightAware
Wed 03:06:42 AM 51.3963 -1.7336 103° East 275 316 12,900 -1,385 Descending FlightAware (EGPK / PIK)
Wed 03:06:51 AM 51.3938 -1.7157 103° East 273 314 12,700 -947 Descending FlightAware (EGHH / BOH)
Wed 03:07:01 AM 51.3913 -1.6986 103° East 273 314 12,600 -800 Descending FlightAware (EGPK / PIK)
Wed 03:07:06 AM 51.3897 -1.6871 103° East 272 313 12,500 -1,091 Descending FlightAware
Wed 03:07:12 AM 51.3879 -1.6753 103° East 270 311 12,400 -1,333 Descending FlightAware (EGHH / BOH)
Wed 03:07:24 AM 51.3846 -1.6521 103° East 269 310 12,100 -1,091 Descending FlightAware
Wed 03:07:34 AM 51.3819 -1.6332 103° East 269 310 12,000 -300 Descending FlightAware (EGHH / BOH)
Wed 03:07:44 AM 51.3788 -1.6126 103° East 273 314 12,000  Level FlightAware
Wed 03:08:04 AM 51.3733 -1.5759 103° East 271 312 12,000  Level FlightAware (EGPK / PIK)
Wed 03:08:14 AM 51.3701 -1.5534 103° East 271 312 12,000  Level FlightAware
Wed 03:08:25 AM 51.3673 -1.5345 103° East 270 311 12,000  Level FlightAware
Wed 03:08:28 AM 51.3662 -1.5268 104° East 270 311 12,000  Level FlightAware
Wed 03:08:45 AM 51.3611 -1.4928 103° East 274 315 12,000  Level FlightAware
Wed 03:09:03 AM 51.3559 -1.4573 103° East 271 312 12,000  Level FlightAware (EGHH / BOH)
Wed 03:09:16 AM 51.3521 -1.4319 103° East 273 314 12,000  Level FlightAware
Wed 03:09:34 AM 51.3477 -1.4020 103° East 274 315 12,000  Level FlightAware (EGLF / FAB)
Wed 03:09:46 AM 51.3433 -1.3730 104° East 272 313 12,000  Level FlightAware
Wed 03:10:04 AM 51.3382 -1.3385 103° East 273 314 12,000  Level FlightAware (EGDM)
Wed 03:10:17 AM 51.3345 -1.3139 103° East 275 316 12,000  Level FlightAware
Wed 03:10:38 AM 51.3282 -1.2717 103° East 276 318 12,000  Level FlightAware (EGLF / FAB)
Wed 03:10:47 AM 51.3256 -1.2544 104° East 275 316 12,000  Level FlightAware
Wed 03:10:58 AM 51.3321 -1.2974 284° West 276 318 12,000 -600 Level FlightAware
Wed 03:11:17 AM 51.3167 -1.1951 103° East 272 313 11,700 -923 Descending FlightAware
Wed 03:11:24 AM 51.3150 -1.1811 101° East 273 314 11,600 -1,091 Descending FlightAware (EGPK / PIK)
Wed 03:11:28 AM 51.3142 -1.1732 99° East 271 312 11,500 -667 Descending FlightAware
Wed 03:11:33 AM 51.3144 -1.1759 278° West 273 314 11,500 -1,200 Level FlightAware
Wed 03:11:38 AM 51.3130 -1.1536 96° East 272 313 11,300 -1,000 Descending FlightAware
Wed 03:12:03 AM 51.3123 -1.1032 91° East 271 312 11,000 -563 Descending FlightAware
Wed 03:12:10 AM 51.3122 -1.0898 91° East 271 312 11,000  Level FlightAware
Wed 03:12:34 AM 51.3119 -1.0421 91° East 270 311 11,000  Level FlightAware
Wed 03:12:44 AM 51.3118 -1.0207 90° East 269 310 11,000  Level FlightAware (EGPK / PIK)
Wed 03:13:04 AM 51.3115 -0.9819 91° East 269 310 11,000  Level FlightAware
Wed 03:13:17 AM 51.3113 -0.9584 91° East 268 308 11,000  Level FlightAware
Wed 03:13:34 AM 51.3109 -0.9220 91° East 269 310 11,000  Level FlightAware
Wed 03:13:47 AM 51.3110 -0.9299 271° West 269 310 11,000  Level FlightAware (EGLC / LCY)
Wed 03:14:04 AM 51.3102 -0.8621 91° East 269 310 11,000  Level FlightAware
Wed 03:14:17 AM 51.3100 -0.8413 91° East 269 310 11,000  Level FlightAware
Wed 03:14:34 AM 51.3096 -0.8041 91° East 270 311 11,000  Level FlightAware
Wed 03:14:47 AM 51.3093 -0.7777 91° East 271 312 11,000  Level FlightAware
Wed 03:15:02 AM 51.3089 -0.7466 91° East 273 314 11,000  Level FlightAware
Wed 03:15:17 AM 51.3085 -0.7174 91° East 273 314 11,000  Level FlightAware
Wed 03:15:33 AM 51.3081 -0.6854 91° East 274 315 11,000  Level FlightAware
Wed 03:15:58 AM 51.3075 -0.6352 91° East 274 315 11,000  Level FlightAware
Wed 03:16:03 AM 51.3074 -0.6239 91° East 274 315 11,000  Level FlightAware
Wed 03:16:31 AM 51.3067 -0.5684 91° East 273 314 11,000  Level FlightAware (EGPK / PIK)
Wed 03:16:34 AM 51.3066 -0.5611 91° East 273 314 11,000  Level FlightAware
Wed 03:17:01 AM 51.3059 -0.5065 91° East 274 315 11,000  Level FlightAware
Wed 03:17:04 AM 51.3058 -0.5008 91° East 274 315 11,000  Level FlightAware
Wed 03:17:26 AM 51.3050 -0.4560 92° East 274 315 11,000  Level FlightAware
Wed 03:17:41 AM 51.3037 -0.4277 94° East 273 314 11,000  Level FlightAware (EGLF / FAB)
Wed 03:17:51 AM 51.3024 -0.4061 95° East 272 313 11,000  Level FlightAware
Wed 03:18:12 AM 51.3011 -0.3732 94° East 272 313 11,000  Level FlightAware (EGPK / PIK)
Wed 03:18:22 AM 51.3001 -0.3458 93° East 272 313 11,000  Level FlightAware
Wed 03:18:32 AM 51.2989 -0.3241 95° East 272 313 11,000  Level FlightAware
Wed 03:18:35 AM 51.2981 -0.3180 102° East 271 312 11,000  Level FlightAware
Wed 03:18:37 AM 51.2974 -0.3142 106° East 271 312 11,000  Level FlightAware
Wed 03:18:43 AM 51.2944 -0.3045 116° Southeast 268 308 11,000  Level FlightAware
Wed 03:18:46 AM 51.2921 -0.2995 126° Southeast 267 307 11,000  Level FlightAware (EGLF / FAB)
Wed 03:18:50 AM 51.2889 -0.2939 133° Southeast 264 304 11,000  Level FlightAware
Wed 03:18:52 AM 51.2930 -0.3014 311° West 263 303 11,000  Level FlightAware (EGPK / PIK)
Wed 03:18:54 AM 51.2852 -0.2888 135° Southeast 263 303 11,000  Level FlightAware
Wed 03:18:57 AM 51.2823 -0.2857 146° Southeast 262 302 11,000  Level FlightAware
Wed 03:19:00 AM 51.2791 -0.2827 150° Southeast 261 300 11,000  Level FlightAware
Wed 03:19:02 AM 51.2764 -0.2807 155° Southeast 260 299 11,000  Level FlightAware
Wed 03:19:09 AM 51.2688 -0.2772 164° South 257 296 11,000  Level FlightAware
Wed 03:19:15 AM 51.2618 -0.2763 176° South 256 295 11,000  Level FlightAware
Wed 03:19:20 AM 51.2629 -0.2763 North 254 292 11,000  Level FlightAware
Wed 03:19:23 AM 51.2519 -0.2787 188° South 255 293 11,000  Level FlightAware
Wed 03:19:28 AM 51.2474 -0.2814 200° South 254 292 11,000  Level FlightAware
Wed 03:19:30 AM 51.2452 -0.2830 205° Southwest 247 284 11,000  Level FlightAware
Wed 03:19:32 AM 51.2431 -0.2849 210° Southwest 254 292 11,000  Level FlightAware
Wed 03:19:37 AM 51.2384 -0.2902 215° Southwest 255 293 11,000  Level FlightAware
Wed 03:19:41 AM 51.2346 -0.2961 224° Southwest 255 293 11,000  Level FlightAware
Wed 03:19:42 AM 51.2356 -0.2943 50° Northeast 255 293 11,000  Level FlightAware
Wed 03:19:45 AM 51.2315 -0.3022 231° Southwest 257 296 11,000  Level FlightAware
Wed 03:19:50 AM 51.2287 -0.3100 240° Southwest 258 297 11,000  Level FlightAware
Wed 03:19:55 AM 51.2262 -0.3197 248° West 260 299 11,000  Level FlightAware
Wed 03:19:59 AM 51.2253 -0.3261 257° West 261 300 11,000  Level FlightAware
Wed 03:20:00 AM 51.2256 -0.3242 77° East 261 300 11,000  Level FlightAware (EGPK / PIK)
Wed 03:20:05 AM 51.2247 -0.3383 264° West 262 302 11,000  Level FlightAware
Wed 03:20:09 AM 51.2251 -0.3461 275° West 263 303 11,000  Level FlightAware
Wed 03:20:13 AM 51.2258 -0.3517 282° West 264 304 11,000  Level FlightAware
Wed 03:20:15 AM 51.2268 -0.3565 287° West 264 304 11,000  Level FlightAware
Wed 03:20:18 AM 51.2285 -0.3631 293° West 266 306 11,000  Level FlightAware
Wed 03:20:24 AM 51.2319 -0.3722 301° West 267 307 11,000  Level FlightAware
Wed 03:20:28 AM 51.2347 -0.3779 308° West 268 308 11,000  Level FlightAware
Wed 03:20:31 AM 51.2383 -0.3833 317° Northwest 271 312 11,000 -1,200 Level FlightAware
Wed 03:20:33 AM 51.2391 -0.3845 319° Northwest 272 313 10,900 -1,200 Descending FlightAware
Wed 03:20:36 AM 51.2424 -0.3884 323° Northwest 274 315 10,900 -1,091 Level FlightAware
Wed 03:20:44 AM 51.2424 -0.3884 180° South 279 321 10,700 -1,200 Descending FlightAware
Wed 03:21:06 AM 51.2762 -0.4217 328° Northwest 277 319 10,300 -923 Descending FlightAware
Wed 03:21:10 AM 51.2807 -0.4259 330° Northwest 276 318 10,300 -692 Level FlightAware (EGLF / FAB)
Wed 03:21:32 AM 51.3037 -0.4471 330° Northwest 264 304 10,000 -783 Descending FlightAware
Wed 03:21:33 AM 51.3053 -0.4485 331° Northwest 271 312 10,000  Level FlightAware
Wed 03:21:38 AM 51.3116 -0.4531 335° Northwest 272 313 10,000  Level FlightAware
Wed 03:21:43 AM 51.3166 -0.4555 344° North 271 312 10,000  Level FlightAware
Wed 03:21:46 AM 51.3215 -0.4565 353° North 271 312 10,000  Level FlightAware
Wed 03:21:52 AM 51.3278 -0.4562 North 271 312 10,000  Level FlightAware
Wed 03:21:56 AM 51.3338 -0.4544 10° North 272 313 10,000  Level FlightAware
Wed 03:21:59 AM 51.3374 -0.4527 17° North 273 314 10,000  Level FlightAware
Wed 03:22:02 AM 51.3399 -0.4512 20° North 274 315 10,000  Level FlightAware
Wed 03:22:03 AM 51.3415 -0.4499 26° Northeast 274 315 10,000  Level FlightAware
Wed 03:22:10 AM 51.3489 -0.4428 31° Northeast 274 315 10,000  Level FlightAware
Wed 03:22:14 AM 51.3526 -0.4373 43° Northeast 275 316 10,000  Level FlightAware
Wed 03:22:18 AM 51.3558 -0.4314 49° Northeast 275 316 10,000  Level FlightAware
Wed 03:22:21 AM 51.3583 -0.4251 58° Northeast 275 316 10,000  Level FlightAware
Wed 03:22:27 AM 51.3613 -0.4149 65° Northeast 273 314 10,000  Level FlightAware
Wed 03:22:30 AM 51.3619 -0.4112 75° East 273 314 10,000  Level FlightAware
Wed 03:22:31 AM 51.3626 -0.4065 77° East 273 314 10,000  Level FlightAware
Wed 03:22:37 AM 51.3633 -0.3945 85° East 271 312 10,000  Level FlightAware
Wed 03:22:41 AM 51.3629 -0.3859 94° East 270 311 10,000  Level FlightAware
Wed 03:22:42 AM 51.3628 -0.3851 106° East 268 308 10,000  Level FlightAware
Wed 03:22:45 AM 51.3620 -0.3789 101° East 269 310 10,000 -857 Level FlightAware
Wed 03:22:49 AM 51.3604 -0.3714 109° East 269 310 9,900 -1,200 Descending FlightAware
Wed 03:22:50 AM 51.3607 -0.3723 296° West 269 310 9,900 -1,500 Level FlightAware
Wed 03:22:53 AM 51.3582 -0.3639 115° Southeast 267 307 9,800 -1,500 Descending FlightAware
Wed 03:22:58 AM 51.3546 -0.3561 126° Southeast 265 305 9,700 -750 Descending FlightAware
Wed 03:23:01 AM 51.3519 -0.3514 132° Southeast 262 302 9,700 -857 Level FlightAware
Wed 03:23:05 AM 51.3492 -0.3476 139° Southeast 261 300 9,600 -1,500 Descending FlightAware
Wed 03:23:09 AM 51.3444 -0.3423 145° Southeast 259 298 9,500 -1,200 Descending FlightAware
Wed 03:23:10 AM 51.3467 -0.3448 326° Northwest 258 297 9,500 -1,200 Level FlightAware
Wed 03:23:19 AM 51.3399 -0.3379 148° Southeast 257 296 9,300 -1,200 Descending FlightAware (EGLC / LCY)
Wed 03:23:25 AM 51.3283 -0.3267 149° Southeast 256 295 9,200 -667 Descending FlightAware
Wed 03:23:37 AM 51.3170 -0.3157 149° Southeast 254 292 9,100 -857 Descending FlightAware (EGLF / FAB)
Wed 03:23:39 AM 51.3140 -0.3128 149° Southeast 253 291 9,000 -316 Descending FlightAware
Wed 03:23:56 AM 51.3017 -0.3014 150° Southeast 251 289 9,000  Level FlightAware (EGPK / PIK)
Wed 03:23:58 AM 51.2953 -0.2953 149° Southeast 251 289 9,000  Level FlightAware
Wed 03:24:13 AM 51.2801 -0.2814 150° Southeast 250 288 9,000  Level FlightAware
Wed 03:24:16 AM 51.2911 -0.2915 330° Northwest 249 287 9,000  Level FlightAware
Wed 03:24:21 AM 51.2718 -0.2763 154° Southeast 248 285 9,000  Level FlightAware
Wed 03:24:22 AM 51.2713 -0.2761 167° South 247 284 9,000 -750 Level FlightAware (EGLF / FAB)
Wed 03:24:29 AM 51.2623 -0.2749 175° South 246 283 8,900 -600 Descending FlightAware
Wed 03:24:32 AM 51.2588 -0.2753 184° South 245 282 8,900  Level FlightAware
Wed 03:24:35 AM 51.2633 -0.2748 North 245 282 8,900 -857 Level FlightAware
Wed 03:24:39 AM 51.2518 -0.2776 189° South 245 282 8,800 -857 Descending FlightAware
Wed 03:24:42 AM 51.2482 -0.2797 200° South 245 282 8,800 -1,200 Level FlightAware (EGPK / PIK)
Wed 03:24:44 AM 51.2457 -0.2815 204° Southwest 244 281 8,700 -1,200 Descending FlightAware
Wed 03:24:47 AM 51.2697 -0.2756 North 244 281 8,700 -1,000 Level FlightAware
Wed 03:24:50 AM 51.2401 -0.2869 193° South 244 281 8,600 -1,385 Descending FlightAware
Wed 03:25:00 AM 51.2324 -0.2986 224° Southwest 245 282 8,400 -1,125 Descending FlightAware
Wed 03:25:06 AM 51.2287 -0.3078 237° Southwest 247 284 8,300 -1,091 Descending FlightAware
Wed 03:25:11 AM 51.2264 -0.3163 247° West 248 285 8,200 -1,333 Descending FlightAware
Wed 03:25:15 AM 51.2252 -0.3233 255° West 249 287 8,100 -1,500 Descending FlightAware
Wed 03:25:19 AM 51.2245 -0.3307 261° West 251 289 8,000 -2,000 Descending FlightAware
Wed 03:25:21 AM 51.2246 -0.3300 79° East 252 290 7,900 -1,000 Descending FlightAware (EGLF / FAB)
Wed 03:25:25 AM 51.2245 -0.3418 269° West 252 290 7,900 -857 Level FlightAware
Wed 03:25:28 AM 51.2252 -0.3483 280° West 253 291 7,800 -1,714 Descending FlightAware
Wed 03:25:32 AM 51.2265 -0.3555 286° West 253 291 7,700 -1,333 Descending FlightAware
Wed 03:25:37 AM 51.2287 -0.3638 293° West 253 291 7,600 -667 Descending FlightAware
Wed 03:25:41 AM 51.2309 -0.3698 300° West 253 291 7,600 -667 Level FlightAware
Wed 03:25:46 AM 51.2348 -0.3775 309° West 254 292 7,500 -1,000 Descending FlightAware
Wed 03:25:53 AM 51.2407 -0.3856 319° Northwest 254 292 7,400 -750 Descending FlightAware
Wed 03:25:54 AM 51.2416 -0.3867 325° Northwest 249 287 7,400 -1,500 Level FlightAware
Wed 03:25:57 AM 51.2452 -0.3902 328° Northwest 255 293 7,300 -1,200 Descending FlightAware
Wed 03:26:09 AM 51.2567 -0.4017 328° Northwest 256 295 7,100 -923 Descending FlightAware (EGLF / FAB)
Wed 03:26:10 AM 51.2578 -0.4028 327° Northwest 256 295 7,100 -353 Level FlightAware
Wed 03:26:26 AM 51.2735 -0.4192 327° Northwest 257 296 7,000 -316 Descending FlightAware
Wed 03:26:29 AM 51.2679 -0.4134 147° Southeast 258 297 7,000  Level FlightAware (EGPK / PIK)
Wed 03:26:40 AM 51.2877 -0.4328 328° Northwest 257 296 7,000  Level FlightAware
Wed 03:26:49 AM 51.2956 -0.4402 330° Northwest 256 295 7,000  Level FlightAware (EGPK / PIK)
Wed 03:26:55 AM 51.3039 -0.4478 330° Northwest 257 296 7,000  Level FlightAware
Wed 03:27:01 AM 51.3100 -0.4530 332° Northwest 257 296 7,000  Level FlightAware
Wed 03:27:06 AM 51.3148 -0.4560 338° Northwest 258 297 7,000  Level FlightAware
Wed 03:27:11 AM 51.3210 -0.4584 346° North 258 297 7,000  Level FlightAware
Wed 03:27:16 AM 51.3273 -0.4591 356° North 260 299 7,000  Level FlightAware
Wed 03:27:20 AM 51.3325 -0.4585 North 261 300 7,000  Level FlightAware
Wed 03:27:25 AM 51.3379 -0.4565 13° North 262 302 7,000  Level FlightAware
Wed 03:27:26 AM 51.3390 -0.4559 17° North 262 302 7,000  Level FlightAware (EGLF / FAB)
Wed 03:27:29 AM 51.3420 -0.4542 20° North 263 303 7,000  Level FlightAware
Wed 03:27:32 AM 51.3459 -0.4510 27° Northeast 263 303 7,000  Level FlightAware
Wed 03:27:36 AM 51.3500 -0.4465 34° Northeast 263 303 7,000  Level FlightAware
Wed 03:27:39 AM 51.3528 -0.4428 40° Northeast 263 303 7,000  Level FlightAware
Wed 03:27:46 AM 51.3581 -0.4331 49° Northeast 258 297 7,000  Level FlightAware
Wed 03:27:47 AM 51.3590 -0.4306 59° Northeast 263 303 7,000  Level FlightAware
Wed 03:27:51 AM 51.3611 -0.4243 62° Northeast 263 303 7,000  Level FlightAware
Wed 03:27:55 AM 51.3628 -0.4176 68° East 262 302 7,000  Level FlightAware
Wed 03:28:01 AM 51.3646 -0.4053 77° East 261 300 7,000  Level FlightAware
Wed 03:28:06 AM 51.3652 -0.3974 83° East 260 299 7,000  Level FlightAware
Wed 03:28:13 AM 51.3659 -0.3835 85° East 260 299 7,000  Level FlightAware
Wed 03:28:26 AM 51.3670 -0.3587 86° East 260 299 7,000  Level FlightAware
Wed 03:28:28 AM 51.3672 -0.3544 86° East 260 299 7,000 -706 Level FlightAware
Wed 03:28:43 AM 51.3686 -0.3252 86° East 260 299 6,800 -947 Descending FlightAware
Wed 03:28:47 AM 51.3687 -0.3224 86° East 260 299 6,700 -1,200 Descending FlightAware
Wed 03:28:58 AM 51.3701 -0.2960 85° East 260 299 6,500 -1,200 Descending FlightAware
Wed 03:29:02 AM 51.3701 -0.2951 93° East 259 298 6,400 -750 Descending FlightAware
Wed 03:29:14 AM 51.3715 -0.2670 85° East 260 299 6,300 -889 Descending FlightAware
Wed 03:29:29 AM 51.3730 -0.2369 85° East 259 298 6,000 -968 Descending FlightAware
Wed 03:29:45 AM 51.3746 -0.2071 85° East 258 297 5,800 -1,000 Descending FlightAware
Wed 03:29:53 AM 51.3743 -0.2119 264° West 259 298 5,600 -1,059 Descending FlightAware (EGPK / PIK)
Wed 03:30:02 AM 51.3766 -0.1744 84° East 258 297 5,500 -1,043 Descending FlightAware
Wed 03:30:16 AM 51.3781 -0.1489 85° East 256 295 5,200 -1,125 Descending FlightAware (EGLF / FAB)
Wed 03:30:18 AM 51.3784 -0.1442 84° East 256 295 5,200 -1,000 Level FlightAware
Wed 03:30:34 AM 51.3803 -0.1140 84° East 253 291 4,900 -1,000 Descending FlightAware
Wed 03:30:36 AM 51.3804 -0.1129 85° East 253 291 4,900 -500 Level FlightAware (EGLF / FAB)
Wed 03:30:46 AM 51.3817 -0.0928 84° East 249 287 4,800 -960 Descending FlightAware
Wed 03:31:01 AM 51.3836 -0.0652 84° East 244 281 4,500 -947 Descending FlightAware
Wed 03:31:05 AM 51.3841 -0.0583 83° East 241 277 4,500 -353 Level FlightAware
Wed 03:31:18 AM 51.3861 -0.0356 82° East 235 270 4,400 -800 Descending FlightAware
Wed 03:31:20 AM 51.3834 -0.0687 263° West 235 270 4,300 -1,000 Descending FlightAware
Wed 03:31:24 AM 51.3879 -0.0265 80° East 234 269 4,300 -462 Level FlightAware
Wed 03:31:33 AM 51.3936 -0.0128 56° Northeast 232 267 4,200 -462 Descending FlightAware
Wed 03:31:37 AM 51.3936 -0.0128 355° North 230 265 4,200 -462 Level FlightAware (EGLC / LCY)
Wed 03:31:46 AM 51.4050 -0.0012 33° Northeast 229 264 4,100 -857 Descending FlightAware
Wed 03:31:51 AM 51.4100 0.0007 14° North 226 260 4,000 -667 Descending FlightAware
Wed 03:31:55 AM 51.4139 0.0016 North 223 257 4,000  Level FlightAware
Wed 03:31:57 AM 51.4159 0.0018 North 215 247 4,000  Level FlightAware
Wed 03:32:01 AM 51.4201 0.0021 North 222 255 4,000 -600 Level FlightAware
Wed 03:32:17 AM 51.4370 0.0028 North 222 255 3,800 -444 Descending FlightAware
Wed 03:32:28 AM 51.4475 0.0030 360° North 222 255 3,800 -333 Level FlightAware
Wed 03:32:35 AM 51.4549 0.0006 349° North 218 251 3,700 -750 Descending FlightAware
Wed 03:32:36 AM 51.4555 0.0003 341° North 220 253 3,700 -1,200 Level FlightAware
Wed 03:32:40 AM 51.4592 -0.0025 335° Northwest 215 247 3,600 -667 Descending FlightAware
Wed 03:32:45 AM 51.4632 -0.0072 324° Northwest 209 241 3,600  Level FlightAware
Wed 03:32:51 AM 51.4664 -0.0137 308° West 201 231 3,600  Level FlightAware
Wed 03:32:54 AM 51.4676 -0.0187 291° West 196 226 3,600 -1,000 Level FlightAware
Wed 03:32:57 AM 51.4678 -0.0199 287° West 191 220 3,500  Descending FlightAware (EGLC / LCY)
Wed 03:33:02 AM 51.4681 -0.0293 273° West 186 214 3,600 667 Climbing FlightAware
Wed 03:33:06 AM 51.4675 -0.0349 260° West 182 209 3,600  Level FlightAware
Wed 03:33:08 AM 51.4673 -0.0355 246° West 180 207 3,600  Level FlightAware
Wed 03:33:18 AM 51.4655 -0.0496 258° West 178 205 3,600  Level FlightAware
Wed 03:33:24 AM 51.4651 -0.0577 265° West 173 199 3,600  Level FlightAware
Wed 03:33:28 AM 51.4651 -0.0620 270° West 170 196 3,600  Level FlightAware
Wed 03:33:38 AM 51.4652 -0.0740 271° West 159 183 3,600  Level FlightAware
Wed 03:33:45 AM 51.4653 -0.0828 271° West 155 178 3,600  Level FlightAware
Wed 03:33:56 AM 51.4655 -0.0952 271° West 153 176 3,600  Level FlightAware
Wed 03:33:58 AM 51.4655 -0.0969 267° West 153 176 3,600  Level FlightAware
Wed 03:34:12 AM 51.4655 -0.1126 270° West 153 176 3,600  Level FlightAware
Wed 03:34:13 AM 51.4655 -0.1138 274° West 153 176 3,600 -800 Level FlightAware
Wed 03:34:27 AM 51.4655 -0.1299 270° West 156 180 3,400 -960 Descending FlightAware
Wed 03:34:38 AM 51.4655 -0.1431 270° West 153 176 3,200 -889 Descending FlightAware
Wed 03:34:54 AM 51.4655 -0.1610 270° West 153 176 3,000 -750 Descending FlightAware
Wed 03:35:10 AM 51.4655 -0.1788 270° West 155 178 2,800 -960 Descending FlightAware
Wed 03:35:19 AM 51.4655 -0.1891 270° West 155 178 2,600 -1,125 Descending FlightAware
Wed 03:35:26 AM 51.4654 -0.1979 269° West 155 178 2,500 -632 Descending FlightAware
Wed 03:35:38 AM 51.4654 -0.2091 270° West 155 178 2,400 -667 Descending FlightAware (EGLC / LCY)
Wed 03:35:44 AM 51.4654 -0.2179 270° West 156 180 2,300 -947 Descending FlightAware
Wed 03:35:57 AM 51.4654 -0.2338 270° West 158 182 2,100 -800 Descending FlightAware (EGLC / LCY)
Wed 03:35:59 AM 51.4654 -0.2356 270° West 158 182 2,100 -1,059 Level FlightAware
Wed 03:36:14 AM 51.4654 -0.2436 270° West 156 180 1,800 -923 Descending FlightAware (EGLC / LCY)
Wed 03:36:25 AM 51.4654 -0.2663 270° West 156 180 1,700 -750 Descending FlightAware
Wed 03:36:30 AM 51.4654 -0.2715 269° West 158 182 1,600 -720 Descending FlightAware
Wed 03:36:50 AM 51.4653 -0.2945 270° West 155 178 1,400 -750 Descending FlightAware
Wed 03:37:10 AM 51.4653 -0.3170 270° West 148 170 1,100 -769 Descending FlightAware
Wed 03:37:29 AM 51.4652 -0.3375 270° West 138 159 900 -750 Descending FlightAware
Wed 03:37:50 AM 51.4652 -0.3587 270° West 142 163 600 -878 Descending FlightAware
Wed 03:38:10 AM 51.4651 -0.3805 270° West 143 165 300 -833 Descending FlightAware (EGLF / FAB)
Wed 03:38:26 AM 51.4651 -0.3970 270° West 146 168 100 -750 Descending FlightAware

Login

Don't have an account? Register now (free) for customized features, flight alerts, and more!